createdAt,value
2022-10-23T00:01:14.785Z,65.04
2022-10-23T00:03:41.970Z,65.08
2022-10-23T00:06:09.721Z,65.02
2022-10-23T00:08:36.862Z,64.89
2022-10-23T00:11:11.853Z,65.06
2022-10-23T00:13:39.555Z,65.38
2022-10-23T00:16:07.542Z,65.00
2022-10-23T00:18:34.930Z,65.16
2022-10-23T00:21:02.621Z,65.54
2022-10-23T00:23:29.640Z,65.46
2022-10-23T00:25:56.671Z,65.27
2022-10-23T00:28:23.764Z,65.77
2022-10-23T00:30:50.813Z,65.40
2022-10-23T00:33:17.799Z,65.44
2022-10-23T00:35:44.949Z,65.26
2022-10-23T00:38:12.491Z,65.94
2022-10-23T00:40:42.355Z,65.27
2022-10-23T00:43:21.274Z,65.34
2022-10-23T00:45:48.422Z,65.50
2022-10-23T00:48:16.245Z,65.32
2022-10-23T00:50:43.532Z,65.07
2022-10-23T00:53:13.111Z,65.35
2022-10-23T00:55:46.008Z,64.85
2022-10-23T00:58:18.987Z,65.17
2022-10-23T01:00:49.839Z,65.22
2022-10-23T01:03:21.762Z,65.14
2022-10-23T01:06:03.204Z,64.95
2022-10-23T01:08:41.728Z,65.25
2022-10-23T01:11:15.293Z,65.54
2022-10-23T01:13:46.194Z,65.44
2022-10-23T01:16:22.360Z,65.66
2022-10-23T01:18:59.186Z,65.46
2022-10-23T01:21:37.734Z,65.38
2022-10-23T01:24:29.809Z,65.25
2022-10-23T01:27:17.972Z,65.11
2022-10-23T01:29:59.395Z,65.38
2022-10-23T01:32:43.276Z,65.17
2022-10-23T01:35:19.248Z,65.21
2022-10-23T01:38:02.535Z,65.38
2022-10-23T01:40:57.683Z,65.47
2022-10-23T01:43:29.242Z,65.04
2022-10-23T01:46:04.452Z,65.15
2022-10-23T01:48:34.290Z,65.32
2022-10-23T01:51:06.482Z,65.07
2022-10-23T01:53:38.585Z,65.86
2022-10-23T01:56:13.316Z,65.71
2022-10-23T01:58:44.450Z,65.70
2022-10-23T02:01:13.725Z,65.47
2022-10-23T02:03:48.659Z,65.62
2022-10-23T02:06:15.958Z,65.40
2022-10-23T02:08:43.219Z,65.38
2022-10-23T02:11:14.126Z,65.48
2022-10-23T02:14:02.475Z,65.70
2022-10-23T02:16:45.395Z,65.72
2022-10-23T02:19:27.192Z,65.90
2022-10-23T02:22:07.199Z,65.76
2022-10-23T02:25:07.207Z,65.81
2022-10-23T02:27:56.327Z,66.19
2022-10-23T02:30:31.025Z,66.28
2022-10-23T02:33:09.686Z,66.36
2022-10-23T02:35:37.046Z,66.38
2022-10-23T02:38:40.692Z,66.53
2022-10-23T02:41:23.510Z,66.79
2022-10-23T02:43:56.848Z,66.89
2022-10-23T02:46:50.104Z,67.05
2022-10-23T02:49:44.660Z,67.38
2022-10-23T02:52:39.882Z,67.35
2022-10-23T02:55:25.213Z,67.29
2022-10-23T02:58:04.318Z,67.39
2022-10-23T03:00:35.939Z,67.52
2022-10-23T03:03:10.125Z,67.42
2022-10-23T03:05:40.923Z,67.52
2022-10-23T03:08:13.627Z,67.57
2022-10-23T03:10:42.696Z,67.40
2022-10-23T03:13:12.834Z,67.37
2022-10-23T03:15:44.485Z,67.31
2022-10-23T03:18:13.981Z,67.82
2022-10-23T03:20:45.723Z,67.64
2022-10-23T03:23:14.633Z,67.71
2022-10-23T03:25:42.913Z,67.70
2022-10-23T03:28:11.071Z,68.11
2022-10-23T03:30:38.310Z,68.09
2022-10-23T03:33:05.291Z,68.00
2022-10-23T03:35:35.590Z,67.74
2022-10-23T03:38:02.678Z,67.97
2022-10-23T03:40:29.656Z,68.12
2022-10-23T03:42:56.622Z,68.06
2022-10-23T03:45:23.631Z,68.17
2022-10-23T03:47:51.871Z,68.32
2022-10-23T03:50:19.973Z,68.16
2022-10-23T03:52:47.594Z,68.46
2022-10-23T03:55:14.670Z,68.36
2022-10-23T03:57:41.622Z,68.15
2022-10-23T04:00:09.496Z,68.74
2022-10-23T04:02:47.782Z,68.90
2022-10-23T04:05:15.386Z,69.25
2022-10-23T04:07:51.695Z,69.30
2022-10-23T04:10:18.881Z,69.10
2022-10-23T04:12:46.002Z,69.82
2022-10-23T04:15:13.175Z,69.56
2022-10-23T04:17:42.909Z,69.37
2022-10-23T04:20:10.314Z,69.56
2022-10-23T04:22:37.266Z,69.41
2022-10-23T04:25:04.667Z,69.00
2022-10-23T04:27:34.605Z,68.90
2022-10-23T04:30:03.735Z,69.14
2022-10-23T04:32:31.683Z,69.67
2022-10-23T04:34:58.647Z,69.31
2022-10-23T04:37:25.806Z,69.41
2022-10-23T04:39:52.769Z,69.56
2022-10-23T04:42:19.871Z,69.60
2022-10-23T04:44:47.718Z,69.49
2022-10-23T04:47:14.663Z,70.08
2022-10-23T04:49:54.605Z,69.71
2022-10-23T04:52:35.547Z,69.63
2022-10-23T04:55:15.619Z,69.90
2022-10-23T04:57:50.130Z,69.48
2022-10-23T05:00:21.371Z,69.60
2022-10-23T05:02:51.792Z,69.43
2022-10-23T05:05:20.263Z,69.55
2022-10-23T05:07:59.994Z,69.79
2022-10-23T05:10:42.912Z,69.60
2022-10-23T05:13:12.527Z,69.32
2022-10-23T05:15:40.663Z,69.53
2022-10-23T05:18:15.592Z,69.35
2022-10-23T05:20:46.478Z,69.38
2022-10-23T05:23:16.833Z,68.91
2022-10-23T05:25:52.826Z,68.67
2022-10-23T05:28:19.890Z,68.73
2022-10-23T05:30:47.245Z,68.98
2022-10-23T05:33:16.602Z,68.41
2022-10-23T05:35:45.227Z,68.20
2022-10-23T05:38:14.873Z,68.10
2022-10-23T05:40:42.866Z,67.90
2022-10-23T05:43:15.183Z,67.86
2022-10-23T05:46:06.242Z,67.56
2022-10-23T05:48:46.308Z,67.87
2022-10-23T05:51:25.466Z,67.47
2022-10-23T05:54:00.202Z,67.62
2022-10-23T05:56:32.314Z,67.26
2022-10-23T05:59:08.330Z,66.95
2022-10-23T06:01:48.550Z,66.86
2022-10-23T06:04:21.021Z,66.48
2022-10-23T06:07:17.557Z,66.59
2022-10-23T06:09:46.285Z,66.30
2022-10-23T06:12:13.456Z,65.90
2022-10-23T06:14:43.382Z,65.29
2022-10-23T06:17:10.371Z,65.03
2022-10-23T06:19:43.678Z,64.90
2022-10-23T06:22:10.800Z,64.63
2022-10-23T06:24:48.137Z,64.93
2022-10-23T06:27:20.396Z,64.61
2022-10-23T06:29:47.458Z,64.47
2022-10-23T06:32:14.546Z,64.40
2022-10-23T06:34:47.330Z,64.56
2022-10-23T06:37:14.349Z,64.34
2022-10-23T06:39:45.421Z,64.35
2022-10-23T06:42:15.155Z,64.42
2022-10-23T06:45:08.204Z,64.05
2022-10-23T06:47:55.110Z,64.07
2022-10-23T06:50:53.412Z,64.25
2022-10-23T06:53:28.004Z,63.86
2022-10-23T06:56:07.081Z,63.10
2022-10-23T06:58:37.818Z,63.55
2022-10-23T07:01:13.837Z,62.86
2022-10-23T07:03:42.846Z,63.33
2022-10-23T07:06:11.013Z,63.18
2022-10-23T07:08:38.984Z,62.64
2022-10-23T07:11:21.975Z,62.51
2022-10-23T07:13:49.425Z,61.64
2022-10-23T07:16:23.416Z,61.38
2022-10-23T07:18:59.744Z,61.12
2022-10-23T07:21:36.205Z,61.27
2022-10-23T07:24:22.315Z,60.80
2022-10-23T07:29:17.997Z,60.01
2022-10-23T07:31:45.050Z,59.67
2022-10-23T07:34:32.171Z,59.71
2022-10-23T07:37:22.274Z,59.81
2022-10-23T07:39:49.230Z,59.66
2022-10-23T07:42:16.258Z,59.42
2022-10-23T07:44:43.237Z,59.26
2022-10-23T07:47:10.363Z,59.50
2022-10-23T07:49:40.272Z,59.72
2022-10-23T07:52:07.725Z,59.62
2022-10-23T07:54:54.765Z,59.47
2022-10-23T07:57:22.289Z,59.42
2022-10-23T07:59:55.386Z,59.56
2022-10-23T08:02:24.133Z,59.05
2022-10-23T08:04:52.422Z,58.70
2022-10-23T08:07:25.858Z,58.61
2022-10-23T08:09:55.971Z,58.87
2022-10-23T08:12:22.943Z,58.85
2022-10-23T08:14:50.071Z,58.36
2022-10-23T08:17:17.351Z,58.30
2022-10-23T08:20:02.601Z,58.65
2022-10-23T08:22:37.074Z,58.55
2022-10-23T08:25:04.760Z,58.28
2022-10-23T08:27:32.086Z,58.71
2022-10-23T08:29:59.109Z,58.93
2022-10-23T08:32:30.796Z,59.17
2022-10-23T08:35:03.056Z,59.22
2022-10-23T08:37:32.524Z,58.56
2022-10-23T08:39:59.596Z,58.62
2022-10-23T08:43:05.907Z,58.70
2022-10-23T08:45:38.420Z,58.92
2022-10-23T08:48:30.664Z,59.18
2022-10-23T08:51:42.643Z,59.13
2022-10-23T08:54:25.271Z,59.16
2022-10-23T08:57:00.497Z,59.10
2022-10-23T08:59:34.461Z,58.74
2022-10-23T09:02:04.724Z,59.03
2022-10-23T09:04:32.069Z,58.96
2022-10-23T09:07:20.196Z,59.05
2022-10-23T09:10:14.532Z,59.63
2022-10-23T09:12:42.510Z,59.87
2022-10-23T09:15:31.649Z,59.95
2022-10-23T09:18:04.831Z,60.24
2022-10-23T09:20:36.497Z,60.19
2022-10-23T09:23:19.593Z,59.83
2022-10-23T09:25:48.158Z,60.20
2022-10-23T09:28:27.742Z,60.40
2022-10-23T09:31:05.711Z,60.18
2022-10-23T09:33:34.797Z,60.32
2022-10-23T09:36:13.823Z,60.63
2022-10-23T09:38:46.785Z,60.28
2022-10-23T09:41:19.529Z,60.50
2022-10-23T09:43:47.033Z,60.53
2022-10-23T09:46:19.582Z,60.74
2022-10-23T09:48:58.257Z,60.61
2022-10-23T09:51:26.068Z,60.76
2022-10-23T09:53:58.419Z,60.85
2022-10-23T09:59:25.575Z,60.70
2022-10-23T10:01:57.196Z,60.79
2022-10-23T10:04:43.023Z,60.75
2022-10-23T10:07:21.109Z,61.20
2022-10-23T10:09:48.725Z,61.89
2022-10-23T10:12:25.912Z,62.26
2022-10-23T10:14:55.895Z,62.22
2022-10-23T10:17:50.530Z,62.23
2022-10-23T10:20:29.382Z,62.01
2022-10-23T10:23:19.452Z,62.78
2022-10-23T10:26:15.799Z,62.49
2022-10-23T10:29:05.317Z,63.26
2022-10-23T10:31:57.030Z,63.21
2022-10-23T10:34:33.131Z,63.06
2022-10-23T10:37:54.541Z,63.81
2022-10-23T10:40:33.028Z,64.07
2022-10-23T10:43:16.334Z,63.83
2022-10-23T10:46:10.488Z,64.87
2022-10-23T10:49:01.910Z,64.71
2022-10-23T10:52:10.984Z,64.95
2022-10-23T10:54:51.503Z,65.00
2022-10-23T10:57:41.419Z,65.52
2022-10-23T11:00:23.352Z,64.67
2022-10-23T11:03:00.407Z,64.30
2022-10-23T11:05:38.385Z,64.64
2022-10-23T11:08:28.026Z,64.91
2022-10-23T11:11:03.257Z,64.67
2022-10-23T11:13:40.374Z,64.67
2022-10-23T11:16:21.668Z,65.21
2022-10-23T11:19:15.338Z,65.13
2022-10-23T11:21:53.063Z,65.19
2022-10-23T11:24:22.607Z,64.90
2022-10-23T11:27:10.478Z,65.35
2022-10-23T11:30:03.991Z,65.11
2022-10-23T11:32:59.514Z,65.36
2022-10-23T11:36:03.696Z,65.73
2022-10-23T11:38:35.060Z,65.81
2022-10-23T11:41:05.778Z,66.24
2022-10-23T11:43:34.226Z,67.42
2022-10-23T11:46:29.892Z,66.78
2022-10-23T11:48:58.290Z,66.48
2022-10-23T11:51:45.629Z,66.62
2022-10-23T11:54:13.694Z,66.65
2022-10-23T11:57:09.144Z,66.74
2022-10-23T11:59:49.319Z,66.77
2022-10-23T12:02:25.662Z,66.78
2022-10-23T12:04:54.395Z,66.51
2022-10-23T12:07:29.147Z,66.33
2022-10-23T12:09:59.659Z,66.38
2022-10-23T12:12:31.320Z,66.31
2022-10-23T12:15:19.340Z,66.50
2022-10-23T12:17:48.884Z,66.33
2022-10-23T12:21:01.274Z,66.14
2022-10-23T12:23:48.390Z,66.45
2022-10-23T12:26:39.954Z,66.50
2022-10-23T12:29:12.466Z,67.77
2022-10-23T12:32:05.902Z,68.16
2022-10-23T12:35:09.569Z,67.79
2022-10-23T12:38:07.060Z,68.29
2022-10-23T12:40:34.238Z,67.90
2022-10-23T12:43:01.427Z,68.28
2022-10-23T12:45:32.783Z,68.25
2022-10-23T12:48:01.495Z,68.35
2022-10-23T12:50:31.457Z,69.19
2022-10-23T12:53:02.052Z,68.68
2022-10-23T12:58:35.243Z,69.28
2022-10-23T13:01:06.950Z,69.17
2022-10-23T13:03:35.617Z,69.04
2022-10-23T13:06:03.363Z,69.37
2022-10-23T13:08:49.179Z,69.52
2022-10-23T13:11:31.076Z,68.86
2022-10-23T13:14:01.851Z,69.56
2022-10-23T13:16:28.880Z,69.93
2022-10-23T13:18:55.800Z,69.72
2022-10-23T13:21:25.481Z,69.84
2022-10-23T13:23:53.487Z,69.90
2022-10-23T13:26:45.277Z,69.82
2022-10-23T13:29:31.244Z,70.05
2022-10-23T13:31:58.431Z,69.79
2022-10-23T13:34:30.112Z,70.21
2022-10-23T13:37:21.171Z,70.16
2022-10-23T13:40:03.402Z,70.82
2022-10-23T13:42:31.567Z,70.58
2022-10-23T13:44:58.552Z,70.99
2022-10-23T13:47:25.625Z,71.32
2022-10-23T13:49:52.618Z,71.05
2022-10-23T13:52:23.905Z,71.33
2022-10-23T13:54:51.138Z,70.94
2022-10-23T13:57:18.080Z,71.17
2022-10-23T13:59:45.743Z,70.77
2022-10-23T14:02:19.699Z,71.32
2022-10-23T14:04:47.416Z,71.40
2022-10-23T14:07:14.663Z,71.53
2022-10-23T14:09:41.684Z,71.25
2022-10-23T14:12:08.668Z,71.84
2022-10-23T14:14:35.704Z,71.74
2022-10-23T14:17:02.673Z,71.84
2022-10-23T14:19:29.711Z,71.69
2022-10-23T14:21:56.781Z,71.90
2022-10-23T14:24:23.893Z,71.74
2022-10-23T14:26:50.912Z,71.95
2022-10-23T14:29:23.920Z,71.96
2022-10-23T14:31:52.012Z,71.41
2022-10-23T14:34:19.003Z,72.47
2022-10-23T14:36:50.657Z,72.10
2022-10-23T14:39:18.458Z,71.69
2022-10-23T14:41:45.662Z,71.98
2022-10-23T14:44:12.723Z,72.00
2022-10-23T14:46:39.738Z,72.03
2022-10-23T14:49:07.205Z,72.27
2022-10-23T14:51:34.197Z,71.84
2022-10-23T14:54:04.327Z,72.15
2022-10-23T14:56:34.295Z,72.09
2022-10-23T14:59:04.706Z,72.20
2022-10-23T15:01:43.754Z,72.52
2022-10-23T15:04:14.753Z,72.87
2022-10-23T15:06:42.539Z,72.59
2022-10-23T15:09:09.554Z,73.04
2022-10-23T15:11:36.582Z,72.99
2022-10-23T15:14:03.706Z,73.16
2022-10-23T15:16:32.531Z,73.17
2022-10-23T15:18:59.648Z,73.33
2022-10-23T15:21:26.597Z,72.94
2022-10-23T15:23:54.929Z,72.87
2022-10-23T15:26:23.270Z,73.10
2022-10-23T15:28:59.271Z,72.80
2022-10-23T15:31:29.161Z,72.88
2022-10-23T15:33:59.623Z,72.94
2022-10-23T15:36:27.361Z,72.81
2022-10-23T15:38:54.347Z,72.88
2022-10-23T15:41:33.438Z,72.76
2022-10-23T15:44:02.131Z,73.35
2022-10-23T15:46:29.712Z,73.40
2022-10-23T15:48:56.722Z,73.15
2022-10-23T15:51:23.664Z,73.06
2022-10-23T15:53:50.724Z,73.00
2022-10-23T15:56:17.770Z,73.42
2022-10-23T15:58:46.409Z,73.56
2022-10-23T16:01:13.566Z,73.32
2022-10-23T16:03:40.641Z,73.56
2022-10-23T16:06:10.358Z,73.03
2022-10-23T16:08:37.930Z,73.13
2022-10-23T16:11:12.174Z,73.08
2022-10-23T16:13:39.161Z,73.59
2022-10-23T16:16:07.251Z,73.60
2022-10-23T16:18:34.270Z,73.61
2022-10-23T16:21:01.216Z,73.43
2022-10-23T16:23:28.498Z,73.73
2022-10-23T16:25:55.669Z,73.52
2022-10-23T16:28:24.150Z,73.71
2022-10-23T16:30:51.259Z,73.70
2022-10-23T16:33:18.248Z,73.64
2022-10-23T16:35:45.189Z,73.69
2022-10-23T16:38:17.553Z,74.12
2022-10-23T16:40:51.885Z,74.03
2022-10-23T16:43:48.035Z,74.10
2022-10-23T16:46:35.569Z,74.50
2022-10-23T16:49:03.455Z,74.52
2022-10-23T16:51:31.817Z,74.48
2022-10-23T16:53:59.041Z,74.40
2022-10-23T16:56:30.524Z,74.51
2022-10-23T17:01:33.160Z,74.14
2022-10-23T17:04:00.404Z,74.52
2022-10-23T17:06:30.419Z,74.60
2022-10-23T17:08:58.796Z,74.05
2022-10-23T17:11:31.158Z,73.99
2022-10-23T17:14:15.800Z,74.23
2022-10-23T17:16:46.222Z,74.42
2022-10-23T17:19:32.771Z,74.32
2022-10-23T17:22:01.793Z,74.52
2022-10-23T17:24:28.940Z,74.53
2022-10-23T17:26:56.341Z,74.83
2022-10-23T17:29:23.412Z,75.22
2022-10-23T17:31:51.190Z,74.63
2022-10-23T17:34:22.711Z,74.77
2022-10-23T17:36:54.111Z,75.45
2022-10-23T17:39:25.391Z,75.28
2022-10-23T17:41:53.595Z,74.74
2022-10-23T17:44:20.825Z,74.99
2022-10-23T17:46:54.545Z,75.08
2022-10-23T17:49:22.426Z,74.75
2022-10-23T17:51:57.606Z,74.62
2022-10-23T17:54:26.539Z,75.06
2022-10-23T17:56:54.146Z,74.51
2022-10-23T17:59:21.294Z,74.75
2022-10-23T18:01:49.228Z,74.45
2022-10-23T18:04:18.739Z,74.78
2022-10-23T18:06:53.115Z,74.68
2022-10-23T18:09:22.103Z,74.64
2022-10-23T18:11:49.446Z,74.76
2022-10-23T18:14:18.394Z,75.01
2022-10-23T18:16:46.358Z,75.03
2022-10-23T18:19:14.933Z,74.71
2022-10-23T18:21:42.210Z,74.93
2022-10-23T18:24:10.986Z,74.88
2022-10-23T18:26:41.402Z,74.56
2022-10-23T18:29:09.915Z,74.97
2022-10-23T18:31:37.860Z,75.20
2022-10-23T18:34:07.908Z,75.55
2022-10-23T18:36:38.347Z,75.36
2022-10-23T18:39:07.191Z,75.41
2022-10-23T18:41:37.236Z,75.17
2022-10-23T18:44:04.868Z,75.35
2022-10-23T18:46:32.243Z,75.39
2022-10-23T18:48:59.759Z,75.04
2022-10-23T18:51:32.651Z,75.09
2022-10-23T18:54:06.202Z,75.38
2022-10-23T18:56:35.930Z,74.87
2022-10-23T18:59:05.321Z,75.22
2022-10-23T19:01:33.681Z,74.82
2022-10-23T19:04:01.692Z,75.45
2022-10-23T19:06:29.886Z,75.17
2022-10-23T19:08:57.402Z,75.33
2022-10-23T19:11:26.781Z,75.13
2022-10-23T19:13:54.574Z,75.12
2022-10-23T19:16:31.420Z,75.12
2022-10-23T19:19:11.646Z,75.14
2022-10-23T19:21:40.481Z,75.50
2022-10-23T19:24:20.140Z,75.08
2022-10-23T19:26:47.976Z,75.53
2022-10-23T19:29:20.808Z,75.57
2022-10-23T19:31:49.992Z,75.42
2022-10-23T19:34:22.834Z,75.58
2022-10-23T19:36:50.724Z,75.38
2022-10-23T19:39:18.821Z,74.99
2022-10-23T19:41:45.942Z,75.01
2022-10-23T19:44:14.777Z,75.03
2022-10-23T19:46:42.151Z,75.04
2022-10-23T19:49:10.494Z,75.33
2022-10-23T19:51:38.421Z,75.38
2022-10-23T19:54:06.078Z,75.37
2022-10-23T19:56:33.121Z,75.29
2022-10-23T19:59:00.305Z,75.45
2022-10-23T20:01:27.444Z,75.29
2022-10-23T20:03:55.648Z,75.30
2022-10-23T20:06:25.840Z,74.87
2022-10-23T20:08:53.403Z,74.64
2022-10-23T20:11:28.176Z,74.81
2022-10-23T20:13:55.952Z,74.57
2022-10-23T20:16:31.943Z,74.75
2022-10-23T20:19:01.724Z,74.40
2022-10-23T20:21:28.794Z,74.80
2022-10-23T20:23:57.856Z,74.28
2022-10-23T20:26:25.285Z,74.33
2022-10-23T20:28:54.784Z,74.49
2022-10-23T20:31:24.106Z,74.47
2022-10-23T20:33:51.977Z,74.60
2022-10-23T20:36:31.800Z,74.37
2022-10-23T20:39:02.618Z,74.14
2022-10-23T20:41:33.172Z,74.21
2022-10-23T20:44:00.848Z,73.91
2022-10-23T20:46:28.142Z,73.76
2022-10-23T20:48:55.185Z,73.95
2022-10-23T20:51:24.247Z,73.66
2022-10-23T20:53:53.204Z,73.78
2022-10-23T20:56:32.516Z,73.52
2022-10-23T20:59:07.813Z,73.65
2022-10-23T21:01:35.497Z,73.55
2022-10-23T21:04:03.776Z,73.71
2022-10-23T21:06:45.618Z,73.70
2022-10-23T21:09:21.215Z,73.58
2022-10-23T21:11:48.373Z,73.34
2022-10-23T21:14:15.560Z,73.49
2022-10-23T21:16:46.522Z,73.13
2022-10-23T21:19:15.955Z,73.05
2022-10-23T21:21:43.779Z,73.10
2022-10-23T21:24:14.856Z,73.29
2022-10-23T21:26:42.619Z,73.08
2022-10-23T21:29:18.402Z,72.87
2022-10-23T21:31:45.976Z,72.81
2022-10-23T21:34:13.008Z,73.18
2022-10-23T21:36:54.060Z,73.05
2022-10-23T21:39:28.710Z,72.76
2022-10-23T21:41:55.722Z,72.89
2022-10-23T21:44:22.777Z,72.89
2022-10-23T21:46:49.803Z,72.65
2022-10-23T21:49:16.902Z,72.78
2022-10-23T21:51:44.175Z,72.79
2022-10-23T21:54:14.856Z,72.58
2022-10-23T21:56:46.861Z,72.74
2022-10-23T21:59:19.733Z,73.00
2022-10-23T22:01:48.536Z,72.53
2022-10-23T22:04:18.213Z,72.67
2022-10-23T22:06:47.687Z,72.71
2022-10-23T22:09:19.031Z,72.39
2022-10-23T22:11:46.378Z,72.94
2022-10-23T22:14:13.563Z,72.48
2022-10-23T22:16:42.285Z,72.71
2022-10-23T22:19:12.496Z,72.96
2022-10-23T22:21:40.429Z,72.95
2022-10-23T22:24:08.384Z,72.71
2022-10-23T22:26:39.022Z,72.42
2022-10-23T22:29:18.249Z,72.74
2022-10-23T22:31:48.858Z,72.70
2022-10-23T22:34:28.700Z,72.70
2022-10-23T22:37:09.125Z,72.74
2022-10-23T22:39:36.396Z,72.86
2022-10-23T22:42:03.495Z,72.81
2022-10-23T22:44:30.722Z,72.85
2022-10-23T22:46:57.828Z,72.62
2022-10-23T22:49:24.913Z,72.57
2022-10-23T22:51:51.909Z,72.91
2022-10-23T22:54:19.020Z,72.58
2022-10-23T22:56:46.022Z,72.44
2022-10-23T22:59:13.017Z,72.78
2022-10-23T23:01:44.058Z,73.15
2022-10-23T23:04:38.354Z,72.95
2022-10-23T23:07:10.395Z,72.75
2022-10-23T23:09:40.429Z,72.97
2022-10-23T23:12:09.902Z,73.01
2022-10-23T23:14:37.459Z,72.90
2022-10-23T23:17:04.962Z,72.58
2022-10-23T23:19:32.030Z,72.84
2022-10-23T23:21:59.477Z,72.42
2022-10-23T23:24:27.081Z,72.19
2022-10-23T23:26:54.162Z,72.54
2022-10-23T23:29:21.830Z,72.50
2022-10-23T23:31:48.983Z,72.30
2022-10-23T23:34:16.117Z,72.17
2022-10-23T23:36:43.108Z,72.48
2022-10-23T23:39:10.650Z,72.49
2022-10-23T23:41:38.026Z,72.96
2022-10-23T23:44:05.317Z,72.49
2022-10-23T23:46:32.367Z,72.59
2022-10-23T23:48:59.453Z,72.66
2022-10-23T23:51:26.937Z,72.26
2022-10-23T23:53:54.029Z,72.24
2022-10-23T23:56:21.881Z,72.40
2022-10-23T23:58:48.947Z,72.34
